Payogasta, Argentina
Current Conditions -  °F | °C
As of 10:00 PM on Wednesday 26 Nov 2014 (Local Time) from SASA Reporting Station
Light Rain Light Rain  
Wind Chill: 64°   Ceiling: 1700
Heat Index: 64°   Visibility: 5mi
Dew Point: 61°   Wind: 7mph
Humidity: 88%   Direction: 360°N
Pressure: 30.15"   Gusts: NA
Location:  25.06°S, 66.03°W
Report Text: SASA 270100Z 36006KT 8000 -RA FEW010 OVC017 18/16 Q1021
Loading
Personal Weather Stations






























Interactive Weather Map New forecast layout! Learn more

10-Day Weather Forecast

Advertisements
Track Severe Weather on mobile